sensor_id;sensor_type;location;lat;lon;timestamp;pressure;altitude;pressure_sealevel;temperature
24714;BMP280;12820;51.580;5.010;2023-06-22T00:02:02;101804.78;;;22.68
24714;BMP280;12820;51.580;5.010;2023-06-22T00:07:04;101815.34;;;22.62
24714;BMP280;12820;51.580;5.010;2023-06-22T00:12:07;101813.97;;;22.54
24714;BMP280;12820;51.580;5.010;2023-06-22T00:17:09;101805.00;;;22.45
24714;BMP280;12820;51.580;5.010;2023-06-22T00:22:11;101801.19;;;22.36
24714;BMP280;12820;51.580;5.010;2023-06-22T00:27:13;101807.53;;;22.29
24714;BMP280;12820;51.580;5.010;2023-06-22T00:32:16;101812.03;;;22.24
24714;BMP280;12820;51.580;5.010;2023-06-22T00:37:21;101805.50;;;22.17
24714;BMP280;12820;51.580;5.010;2023-06-22T00:42:27;101817.69;;;22.12
24714;BMP280;12820;51.580;5.010;2023-06-22T00:47:30;101806.06;;;22.06
24714;BMP280;12820;51.580;5.010;2023-06-22T00:52:32;101808.09;;;21.99
24714;BMP280;12820;51.580;5.010;2023-06-22T00:57:37;101779.34;;;21.93
24714;BMP280;12820;51.580;5.010;2023-06-22T01:02:39;101785.66;;;21.86
24714;BMP280;12820;51.580;5.010;2023-06-22T01:07:55;101789.34;;;21.79
24714;BMP280;12820;51.580;5.010;2023-06-22T01:13:04;101782.72;;;21.75
24714;BMP280;12820;51.580;5.010;2023-06-22T01:18:09;101790.50;;;21.72
24714;BMP280;12820;51.580;5.010;2023-06-22T01:28:40;101784.97;;;21.63
24714;BMP280;12820;51.580;5.010;2023-06-22T01:33:48;101789.38;;;21.60
24714;BMP280;12820;51.580;5.010;2023-06-22T01:38:52;101781.91;;;21.55
24714;BMP280;12820;51.580;5.010;2023-06-22T01:43:55;101794.97;;;21.50
24714;BMP280;12820;51.580;5.010;2023-06-22T01:48:57;101796.84;;;21.46
24714;BMP280;12820;51.580;5.010;2023-06-22T01:54:01;101800.53;;;21.39
24714;BMP280;12820;51.580;5.010;2023-06-22T01:59:23;101799.00;;;21.36
24714;BMP280;12820;51.580;5.010;2023-06-22T02:04:34;101788.16;;;21.31
24714;BMP280;12820;51.580;5.010;2023-06-22T02:09:38;101784.06;;;21.27
24714;BMP280;12820;51.580;5.010;2023-06-22T02:14:45;101789.41;;;21.21
24714;BMP280;12820;51.580;5.010;2023-06-22T02:19:48;101776.00;;;21.16
24714;BMP280;12820;51.580;5.010;2023-06-22T02:24:50;101777.81;;;21.14
24714;BMP280;12820;51.580;5.010;2023-06-22T02:29:54;101770.34;;;21.10
24714;BMP280;12820;51.580;5.010;2023-06-22T02:34:56;101779.03;;;21.04
24714;BMP280;12820;51.580;5.010;2023-06-22T02:39:59;101774.19;;;20.99
24714;BMP280;12820;51.580;5.010;2023-06-22T02:45:01;101770.78;;;20.98
24714;BMP280;12820;51.580;5.010;2023-06-22T02:50:04;101771.81;;;20.94
24714;BMP280;12820;51.580;5.010;2023-06-22T02:55:08;101772.06;;;20.88
24714;BMP280;12820;51.580;5.010;2023-06-22T03:00:13;101762.03;;;20.84
24714;BMP280;12820;51.580;5.010;2023-06-22T03:05:21;101755.38;;;20.80
24714;BMP280;12820;51.580;5.010;2023-06-22T03:10:23;101752.03;;;20.78
24714;BMP280;12820;51.580;5.010;2023-06-22T03:15:25;101736.84;;;20.75
24714;BMP280;12820;51.580;5.010;2023-06-22T03:20:28;101735.25;;;20.73
24714;BMP280;12820;51.580;5.010;2023-06-22T03:25:35;101731.97;;;20.69
24714;BMP280;12820;51.580;5.010;2023-06-22T03:30:38;101732.16;;;20.65
24714;BMP280;12820;51.580;5.010;2023-06-22T03:35:41;101743.41;;;20.61
24714;BMP280;12820;51.580;5.010;2023-06-22T03:40:43;101741.75;;;20.60
24714;BMP280;12820;51.580;5.010;2023-06-22T03:45:45;101746.03;;;20.60
24714;BMP280;12820;51.580;5.010;2023-06-22T03:50:48;101743.56;;;20.58
24714;BMP280;12820;51.580;5.010;2023-06-22T03:55:51;101736.81;;;20.56
24714;BMP280;12820;51.580;5.010;2023-06-22T04:00:54;101728.22;;;20.58
24714;BMP280;12820;51.580;5.010;2023-06-22T04:05:56;101732.31;;;20.62
24714;BMP280;12820;51.580;5.010;2023-06-22T04:11:00;101727.94;;;20.64
24714;BMP280;12820;51.580;5.010;2023-06-22T04:16:02;101722.72;;;20.67
24714;BMP280;12820;51.580;5.010;2023-06-22T04:21:04;101723.47;;;20.69
24714;BMP280;12820;51.580;5.010;2023-06-22T04:26:06;101724.22;;;20.72
24714;BMP280;12820;51.580;5.010;2023-06-22T04:31:09;101736.84;;;20.75
24714;BMP280;12820;51.580;5.010;2023-06-22T04:36:11;101739.34;;;20.77
24714;BMP280;12820;51.580;5.010;2023-06-22T04:41:15;101756.22;;;20.81
24714;BMP280;12820;51.580;5.010;2023-06-22T04:46:26;101740.69;;;20.85
24714;BMP280;12820;51.580;5.010;2023-06-22T04:51:28;101737.91;;;20.91
24714;BMP280;12820;51.580;5.010;2023-06-22T04:56:33;101752.16;;;20.96
24714;BMP280;12820;51.580;5.010;2023-06-22T05:01:35;101743.38;;;21.01
24714;BMP280;12820;51.580;5.010;2023-06-22T05:06:38;101744.84;;;21.07
24714;BMP280;12820;51.580;5.010;2023-06-22T05:11:43;101749.03;;;21.09
24714;BMP280;12820;51.580;5.010;2023-06-22T05:16:45;101740.34;;;21.13
24714;BMP280;12820;51.580;5.010;2023-06-22T05:21:48;101736.66;;;21.20
24714;BMP280;12820;51.580;5.010;2023-06-22T05:26:50;101732.03;;;21.28
24714;BMP280;12820;51.580;5.010;2023-06-22T05:31:52;101726.28;;;21.41
24714;BMP280;12820;51.580;5.010;2023-06-22T05:36:55;101729.78;;;21.58
24714;BMP280;12820;51.580;5.010;2023-06-22T05:41:58;101725.63;;;21.73
24714;BMP280;12820;51.580;5.010;2023-06-22T05:47:01;101720.69;;;21.89
24714;BMP280;12820;51.580;5.010;2023-06-22T05:52:03;101724.88;;;22.08
24714;BMP280;12820;51.580;5.010;2023-06-22T05:57:06;101728.13;;;22.29
24714;BMP280;12820;51.580;5.010;2023-06-22T06:02:08;101714.25;;;22.49
24714;BMP280;12820;51.580;5.010;2023-06-22T06:07:10;101714.22;;;22.67
24714;BMP280;12820;51.580;5.010;2023-06-22T06:12:14;101716.88;;;22.82
24714;BMP280;12820;51.580;5.010;2023-06-22T06:17:16;101728.91;;;22.97
24714;BMP280;12820;51.580;5.010;2023-06-22T06:22:18;101719.72;;;23.10
24714;BMP280;12820;51.580;5.010;2023-06-22T06:27:29;101713.06;;;23.22
24714;BMP280;12820;51.580;5.010;2023-06-22T06:32:32;101706.41;;;23.35
24714;BMP280;12820;51.580;5.010;2023-06-22T06:37:40;101703.69;;;23.53
24714;BMP280;12820;51.580;5.010;2023-06-22T06:42:44;101706.38;;;23.67
24714;BMP280;12820;51.580;5.010;2023-06-22T06:47:47;101696.78;;;23.85
24714;BMP280;12820;51.580;5.010;2023-06-22T06:52:49;101690.50;;;24.05
24714;BMP280;12820;51.580;5.010;2023-06-22T06:57:52;101692.63;;;24.28
24714;BMP280;12820;51.580;5.010;2023-06-22T07:02:55;101694.09;;;24.47
24714;BMP280;12820;51.580;5.010;2023-06-22T07:07:58;101696.03;;;24.57
24714;BMP280;12820;51.580;5.010;2023-06-22T07:13:00;101696.19;;;24.69
24714;BMP280;12820;51.580;5.010;2023-06-22T07:18:03;101684.63;;;24.76
24714;BMP280;12820;51.580;5.010;2023-06-22T07:23:08;101682.59;;;24.81
24714;BMP280;12820;51.580;5.010;2023-06-22T07:28:10;101691.72;;;24.86
24714;BMP280;12820;51.580;5.010;2023-06-22T07:33:13;101695.78;;;24.90
24714;BMP280;12820;51.580;5.010;2023-06-22T07:38:15;101688.59;;;24.95
24714;BMP280;12820;51.580;5.010;2023-06-22T07:43:18;101685.59;;;25.02
24714;BMP280;12820;51.580;5.010;2023-06-22T07:48:21;101673.28;;;25.07
24714;BMP280;12820;51.580;5.010;2023-06-22T07:53:24;101649.84;;;25.12
24714;BMP280;12820;51.580;5.010;2023-06-22T07:58:26;101644.34;;;25.17
24714;BMP280;12820;51.580;5.010;2023-06-22T08:03:30;101629.19;;;25.27
24714;BMP280;12820;51.580;5.010;2023-06-22T08:08:32;101628.63;;;25.35
24714;BMP280;12820;51.580;5.010;2023-06-22T08:13:34;101629.72;;;25.45
24714;BMP280;12820;51.580;5.010;2023-06-22T08:18:37;101607.25;;;25.61
24714;BMP280;12820;51.580;5.010;2023-06-22T08:23:39;101600.00;;;25.79
24714;BMP280;12820;51.580;5.010;2023-06-22T08:28:42;101613.03;;;25.90
24714;BMP280;12820;51.580;5.010;2023-06-22T08:33:44;101613.03;;;25.90
24714;BMP280;12820;51.580;5.010;2023-06-22T08:38:51;101630.16;;;25.91
24714;BMP280;12820;51.580;5.010;2023-06-22T08:43:54;101623.34;;;25.90
24714;BMP280;12820;51.580;5.010;2023-06-22T08:48:57;101624.47;;;25.86
24714;BMP280;12820;51.580;5.010;2023-06-22T08:53:59;101601.28;;;25.86
24714;BMP280;12820;51.580;5.010;2023-06-22T08:59:02;101606.06;;;25.92
24714;BMP280;12820;51.580;5.010;2023-06-22T09:04:04;101605.84;;;25.95
24714;BMP280;12820;51.580;5.010;2023-06-22T09:09:08;101606.38;;;26.00
24714;BMP280;12820;51.580;5.010;2023-06-22T09:14:11;101598.25;;;26.05
24714;BMP280;12820;51.580;5.010;2023-06-22T09:19:13;101594.56;;;26.09
24714;BMP280;12820;51.580;5.010;2023-06-22T09:24:15;101583.31;;;26.10
24714;BMP280;12820;51.580;5.010;2023-06-22T09:29:17;101573.00;;;26.10
24714;BMP280;12820;51.580;5.010;2023-06-22T09:34:19;101572.09;;;26.11
24714;BMP280;12820;51.580;5.010;2023-06-22T09:39:22;101572.94;;;26.12
24714;BMP280;12820;51.580;5.010;2023-06-22T09:44:24;101569.31;;;26.14
24714;BMP280;12820;51.580;5.010;2023-06-22T09:49:27;101574.59;;;26.25
24714;BMP280;12820;51.580;5.010;2023-06-22T09:54:48;101579.88;;;26.36
24714;BMP280;12820;51.580;5.010;2023-06-22T09:59:51;101588.97;;;26.41
24714;BMP280;12820;51.580;5.010;2023-06-22T10:04:53;101581.03;;;26.44
24714;BMP280;12820;51.580;5.010;2023-06-22T10:09:56;101578.16;;;26.48
24714;BMP280;12820;51.580;5.010;2023-06-22T10:14:58;101573.50;;;26.53
24714;BMP280;12820;51.580;5.010;2023-06-22T10:20:01;101580.00;;;26.58
24714;BMP280;12820;51.580;5.010;2023-06-22T10:25:09;101585.06;;;26.60
24714;BMP280;12820;51.580;5.010;2023-06-22T10:30:12;101592.00;;;26.59
24714;BMP280;12820;51.580;5.010;2023-06-22T10:35:15;101586.22;;;26.56
24714;BMP280;12820;51.580;5.010;2023-06-22T10:40:18;101600.22;;;26.52
24714;BMP280;12820;51.580;5.010;2023-06-22T10:45:20;101594.53;;;26.47
24714;BMP280;12820;51.580;5.010;2023-06-22T10:50:25;101596.41;;;26.45
24714;BMP280;12820;51.580;5.010;2023-06-22T10:55:27;101603.31;;;26.45
24714;BMP280;12820;51.580;5.010;2023-06-22T11:00:38;101609.47;;;26.42
24714;BMP280;12820;51.580;5.010;2023-06-22T11:05:40;101605.25;;;26.41
24714;BMP280;12820;51.580;5.010;2023-06-22T11:10:43;101605.34;;;26.40
24714;BMP280;12820;51.580;5.010;2023-06-22T11:15:46;101617.63;;;26.37
24714;BMP280;12820;51.580;5.010;2023-06-22T11:20:48;101608.53;;;26.31
24714;BMP280;12820;51.580;5.010;2023-06-22T11:25:53;101600.75;;;26.19
24714;BMP280;12820;51.580;5.010;2023-06-22T11:30:55;101594.84;;;26.05
24714;BMP280;12820;51.580;5.010;2023-06-22T11:36:01;101586.88;;;25.96
24714;BMP280;12820;51.580;5.010;2023-06-22T11:41:03;101578.31;;;25.83
24714;BMP280;12820;51.580;5.010;2023-06-22T11:46:06;101575.56;;;25.72
24714;BMP280;12820;51.580;5.010;2023-06-22T11:51:08;101571.72;;;25.66
24714;BMP280;12820;51.580;5.010;2023-06-22T11:56:10;101568.72;;;25.59
24714;BMP280;12820;51.580;5.010;2023-06-22T12:01:13;101556.31;;;25.52
24714;BMP280;12820;51.580;5.010;2023-06-22T12:06:17;101553.47;;;25.43
24714;BMP280;12820;51.580;5.010;2023-06-22T12:11:19;101562.69;;;25.33
24714;BMP280;12820;51.580;5.010;2023-06-22T12:16:21;101561.44;;;25.26
24714;BMP280;12820;51.580;5.010;2023-06-22T12:21:23;101557.50;;;25.21
24714;BMP280;12820;51.580;5.010;2023-06-22T12:26:26;101550.31;;;25.12
24714;BMP280;12820;51.580;5.010;2023-06-22T12:31:28;101552.53;;;25.04
24714;BMP280;12820;51.580;5.010;2023-06-22T12:36:30;101559.88;;;24.96
24714;BMP280;12820;51.580;5.010;2023-06-22T12:41:35;101561.34;;;24.87
24714;BMP280;12820;51.580;5.010;2023-06-22T12:46:40;101554.13;;;24.79
24714;BMP280;12820;51.580;5.010;2023-06-22T12:51:43;101547.50;;;24.76
24714;BMP280;12820;51.580;5.010;2023-06-22T12:56:46;101538.59;;;24.67
24714;BMP280;12820;51.580;5.010;2023-06-22T13:01:51;101534.16;;;24.56
24714;BMP280;12820;51.580;5.010;2023-06-22T13:06:56;101526.25;;;24.45
24714;BMP280;12820;51.580;5.010;2023-06-22T13:11:59;101522.00;;;24.30
24714;BMP280;12820;51.580;5.010;2023-06-22T13:17:01;101522.63;;;24.20
24714;BMP280;12820;51.580;5.010;2023-06-22T13:22:04;101503.44;;;24.12
24714;BMP280;12820;51.580;5.010;2023-06-22T13:27:06;101499.69;;;24.04
24714;BMP280;12820;51.580;5.010;2023-06-22T13:32:09;101502.66;;;23.96
24714;BMP280;12820;51.580;5.010;2023-06-22T13:37:11;101498.63;;;23.92
24714;BMP280;12820;51.580;5.010;2023-06-22T13:42:13;101497.72;;;23.93
24714;BMP280;12820;51.580;5.010;2023-06-22T13:47:15;101488.28;;;23.94
24714;BMP280;12820;51.580;5.010;2023-06-22T13:52:18;101503.56;;;23.95
24714;BMP280;12820;51.580;5.010;2023-06-22T13:57:20;101500.28;;;23.93
24714;BMP280;12820;51.580;5.010;2023-06-22T14:02:22;101503.84;;;23.91
24714;BMP280;12820;51.580;5.010;2023-06-22T14:07:25;101505.94;;;23.85
24714;BMP280;12820;51.580;5.010;2023-06-22T14:12:27;101502.13;;;23.76
24714;BMP280;12820;51.580;5.010;2023-06-22T14:17:30;101498.19;;;23.71
24714;BMP280;12820;51.580;5.010;2023-06-22T14:22:32;101505.66;;;23.60
24714;BMP280;12820;51.580;5.010;2023-06-22T14:27:34;101507.97;;;23.50
24714;BMP280;12820;51.580;5.010;2023-06-22T14:32:36;101511.97;;;23.40
24714;BMP280;12820;51.580;5.010;2023-06-22T14:37:39;101505.69;;;23.30
24714;BMP280;12820;51.580;5.010;2023-06-22T14:42:41;101489.00;;;23.23
24714;BMP280;12820;51.580;5.010;2023-06-22T14:47:43;101486.72;;;23.17
24714;BMP280;12820;51.580;5.010;2023-06-22T14:52:51;101471.75;;;23.10
24714;BMP280;12820;51.580;5.010;2023-06-22T14:57:53;101475.63;;;23.02
24714;BMP280;12820;51.580;5.010;2023-06-22T15:02:55;101471.00;;;22.93
24714;BMP280;12820;51.580;5.010;2023-06-22T15:07:57;101472.41;;;22.83
24714;BMP280;12820;51.580;5.010;2023-06-22T15:13:00;101477.84;;;22.78
24714;BMP280;12820;51.580;5.010;2023-06-22T15:18:03;101470.41;;;22.73
24714;BMP280;12820;51.580;5.010;2023-06-22T15:23:06;101466.28;;;22.71
24714;BMP280;12820;51.580;5.010;2023-06-22T15:28:08;101468.09;;;22.69
24714;BMP280;12820;51.580;5.010;2023-06-22T15:33:11;101468.09;;;22.69
24714;BMP280;12820;51.580;5.010;2023-06-22T15:38:13;101475.72;;;22.70
24714;BMP280;12820;51.580;5.010;2023-06-22T15:43:15;101478.94;;;22.74
24714;BMP280;12820;51.580;5.010;2023-06-22T15:48:18;101492.25;;;22.80
24714;BMP280;12820;51.580;5.010;2023-06-22T15:53:20;101491.34;;;22.81
24714;BMP280;12820;51.580;5.010;2023-06-22T15:58:22;101486.13;;;22.82
24714;BMP280;12820;51.580;5.010;2023-06-22T16:03:25;101469.84;;;22.83
24714;BMP280;12820;51.580;5.010;2023-06-22T16:08:27;101461.97;;;22.86
24714;BMP280;12820;51.580;5.010;2023-06-22T16:13:32;101464.47;;;22.88
24714;BMP280;12820;51.580;5.010;2023-06-22T16:18:36;101460.16;;;22.88
24714;BMP280;12820;51.580;5.010;2023-06-22T16:23:38;101465.28;;;22.88
24714;BMP280;12820;51.580;5.010;2023-06-22T16:28:40;101470.44;;;22.88
24714;BMP280;12820;51.580;5.010;2023-06-22T16:33:43;101472.22;;;22.86
24714;BMP280;12820;51.580;5.010;2023-06-22T16:38:49;101485.16;;;22.85
24714;BMP280;12820;51.580;5.010;2023-06-22T16:43:54;101492.91;;;22.83
24714;BMP280;12820;51.580;5.010;2023-06-22T16:48:56;101490.28;;;22.85
24714;BMP280;12820;51.580;5.010;2023-06-22T16:53:58;101490.44;;;22.82
24714;BMP280;12820;51.580;5.010;2023-06-22T16:59:01;101488.78;;;22.81
24714;BMP280;12820;51.580;5.010;2023-06-22T17:04:10;101500.03;;;22.79
24714;BMP280;12820;51.580;5.010;2023-06-22T17:09:14;101504.56;;;22.74
24714;BMP280;12820;51.580;5.010;2023-06-22T17:14:16;101508.38;;;22.67
24714;BMP280;12820;51.580;5.010;2023-06-22T17:19:19;101512.91;;;22.62
24714;BMP280;12820;51.580;5.010;2023-06-22T17:24:24;101502.97;;;22.56
24714;BMP280;12820;51.580;5.010;2023-06-22T17:29:30;101501.50;;;22.51
24714;BMP280;12820;51.580;5.010;2023-06-22T17:34:34;101500.25;;;22.43
24714;BMP280;12820;51.580;5.010;2023-06-22T17:39:37;101544.19;;;22.35
24714;BMP280;12820;51.580;5.010;2023-06-22T17:44:40;101546.38;;;22.26
24714;BMP280;12820;51.580;5.010;2023-06-22T17:49:43;101537.38;;;22.19
24714;BMP280;12820;51.580;5.010;2023-06-22T17:54:50;101525.81;;;22.11
24714;BMP280;12820;51.580;5.010;2023-06-22T18:00:05;101520.94;;;22.07
24714;BMP280;12820;51.580;5.010;2023-06-22T18:05:14;101517.75;;;22.02
24714;BMP280;12820;51.580;5.010;2023-06-22T18:10:17;101529.06;;;21.98
24714;BMP280;12820;51.580;5.010;2023-06-22T18:15:21;101531.03;;;21.93
24714;BMP280;12820;51.580;5.010;2023-06-22T18:20:24;101537.38;;;21.86
24714;BMP280;12820;51.580;5.010;2023-06-22T18:25:30;101525.72;;;21.79
24714;BMP280;12820;51.580;5.010;2023-06-22T18:30:36;101531.97;;;21.74
24714;BMP280;12820;51.580;5.010;2023-06-22T18:35:38;101521.09;;;21.69
24714;BMP280;12820;51.580;5.010;2023-06-22T18:40:48;101516.22;;;21.65
24714;BMP280;12820;51.580;5.010;2023-06-22T18:45:52;101525.78;;;21.61
24714;BMP280;12820;51.580;5.010;2023-06-22T18:51:10;101542.09;;;21.59
24714;BMP280;12820;51.580;5.010;2023-06-22T18:56:14;101550.81;;;21.55
24714;BMP280;12820;51.580;5.010;2023-06-22T19:01:22;101557.75;;;21.53
24714;BMP280;12820;51.580;5.010;2023-06-22T19:12:18;101580.91;;;21.50
24714;BMP280;12820;51.580;5.010;2023-06-22T19:17:21;101581.03;;;21.47
24714;BMP280;12820;51.580;5.010;2023-06-22T19:22:46;101582.00;;;21.45
24714;BMP280;12820;51.580;5.010;2023-06-22T19:27:50;101586.50;;;21.40
24714;BMP280;12820;51.580;5.010;2023-06-22T19:32:56;101594.38;;;21.36
24714;BMP280;12820;51.580;5.010;2023-06-22T19:37:59;101591.09;;;21.34
24714;BMP280;12820;51.580;5.010;2023-06-22T19:43:01;101580.09;;;21.32
24714;BMP280;12820;51.580;5.010;2023-06-22T19:48:07;101587.91;;;21.29
24714;BMP280;12820;51.580;5.010;2023-06-22T19:53:12;101607.59;;;21.27
24714;BMP280;12820;51.580;5.010;2023-06-22T19:58:16;101601.75;;;21.25
24714;BMP280;12820;51.580;5.010;2023-06-22T20:03:30;101629.94;;;21.23
24714;BMP280;12820;51.580;5.010;2023-06-22T20:08:42;101660.66;;;21.22
24714;BMP280;12820;51.580;5.010;2023-06-22T20:13:46;101670.16;;;21.20
24714;BMP280;12820;51.580;5.010;2023-06-22T20:19:06;101681.13;;;21.22
24714;BMP280;12820;51.580;5.010;2023-06-22T20:24:10;101681.06;;;21.23
24714;BMP280;12820;51.580;5.010;2023-06-22T20:29:30;101687.13;;;21.21
24714;BMP280;12820;51.580;5.010;2023-06-22T20:34:37;101685.50;;;21.20
24714;BMP280;12820;51.580;5.010;2023-06-22T20:39:40;101690.72;;;21.17
24714;BMP280;12820;51.580;5.010;2023-06-22T20:44:42;101703.66;;;21.14
24714;BMP280;12820;51.580;5.010;2023-06-22T20:49:47;101693.47;;;21.13
24714;BMP280;12820;51.580;5.010;2023-06-22T20:54:51;101702.19;;;21.09
24714;BMP280;12820;51.580;5.010;2023-06-22T20:59:54;101713.31;;;21.06
24714;BMP280;12820;51.580;5.010;2023-06-22T21:04:56;101704.13;;;21.02
24714;BMP280;12820;51.580;5.010;2023-06-22T21:09:59;101715.38;;;20.99
24714;BMP280;12820;51.580;5.010;2023-06-22T21:15:01;101710.41;;;20.96
24714;BMP280;12820;51.580;5.010;2023-06-22T21:20:07;101722.66;;;20.88
24714;BMP280;12820;51.580;5.010;2023-06-22T21:25:11;101729.69;;;20.83
24714;BMP280;12820;51.580;5.010;2023-06-22T21:30:14;101737.63;;;20.77
24714;BMP280;12820;51.580;5.010;2023-06-22T21:35:17;101747.31;;;20.69
24714;BMP280;12820;51.580;5.010;2023-06-22T21:40:19;101751.88;;;20.63
24714;BMP280;12820;51.580;5.010;2023-06-22T21:45:21;101741.94;;;20.56
24714;BMP280;12820;51.580;5.010;2023-06-22T21:50:24;101741.34;;;20.49
24714;BMP280;12820;51.580;5.010;2023-06-22T21:55:26;101748.44;;;20.43
24714;BMP280;12820;51.580;5.010;2023-06-22T22:00:28;101751.28;;;20.36
24714;BMP280;12820;51.580;5.010;2023-06-22T22:05:33;101752.44;;;20.28
24714;BMP280;12820;51.580;5.010;2023-06-22T22:10:35;101766.31;;;20.21
24714;BMP280;12820;51.580;5.010;2023-06-22T22:15:39;101752.19;;;20.12
24714;BMP280;12820;51.580;5.010;2023-06-22T22:20:46;101755.03;;;20.05
24714;BMP280;12820;51.580;5.010;2023-06-22T22:25:48;101774.00;;;19.98
24714;BMP280;12820;51.580;5.010;2023-06-22T22:30:51;101773.44;;;19.92
24714;BMP280;12820;51.580;5.010;2023-06-22T22:35:53;101788.13;;;19.86
24714;BMP280;12820;51.580;5.010;2023-06-22T22:40:56;101789.28;;;19.77
24714;BMP280;12820;51.580;5.010;2023-06-22T22:45:58;101803.94;;;19.73
24714;BMP280;12820;51.580;5.010;2023-06-22T22:51:01;101818.72;;;19.63
24714;BMP280;12820;51.580;5.010;2023-06-22T22:56:05;101824.09;;;19.56
24714;BMP280;12820;51.580;5.010;2023-06-22T23:01:08;101831.91;;;19.50
24714;BMP280;12820;51.580;5.010;2023-06-22T23:06:10;101847.47;;;19.43
24714;BMP280;12820;51.580;5.010;2023-06-22T23:11:13;101847.69;;;19.37
24714;BMP280;12820;51.580;5.010;2023-06-22T23:16:15;101856.31;;;19.33
24714;BMP280;12820;51.580;5.010;2023-06-22T23:21:17;101853.94;;;19.29
24714;BMP280;12820;51.580;5.010;2023-06-22T23:26:19;101853.25;;;19.24
24714;BMP280;12820;51.580;5.010;2023-06-22T23:31:22;101855.06;;;19.21
24714;BMP280;12820;51.580;5.010;2023-06-22T23:36:24;101843.28;;;19.17
24714;BMP280;12820;51.580;5.010;2023-06-22T23:41:27;101860.41;;;19.13
24714;BMP280;12820;51.580;5.010;2023-06-22T23:46:29;101868.16;;;19.10
24714;BMP280;12820;51.580;5.010;2023-06-22T23:51:33;101869.91;;;19.08
24714;BMP280;12820;51.580;5.010;2023-06-22T23:56:39;101864.94;;;19.05
